sensor_id;sensor_type;location;lat;lon;timestamp;pressure;altitude;pressure_sealevel;temperature
20289;BMP180;10303;51.960;8.372;2024-01-10T00:02:06;101990.00;;;-2.00
20289;BMP180;10303;51.960;8.372;2024-01-10T00:04:32;101991.00;;;-2.00
20289;BMP180;10303;51.960;8.372;2024-01-10T00:06:58;101986.00;;;-2.00
20289;BMP180;10303;51.960;8.372;2024-01-10T00:09:24;101984.00;;;-2.00
20289;BMP180;10303;51.960;8.372;2024-01-10T00:11:49;101971.00;;;-2.00
20289;BMP180;10303;51.960;8.372;2024-01-10T00:14:15;101970.00;;;-2.00
20289;BMP180;10303;51.960;8.372;2024-01-10T00:16:42;101970.00;;;-2.00
20289;BMP180;10303;51.960;8.372;2024-01-10T00:19:08;101974.00;;;-2.00
20289;BMP180;10303;51.960;8.372;2024-01-10T00:21:34;101971.00;;;-2.10
20289;BMP180;10303;51.960;8.372;2024-01-10T00:24:01;101966.00;;;-2.10
20289;BMP180;10303;51.960;8.372;2024-01-10T00:26:27;101961.00;;;-2.10
20289;BMP180;10303;51.960;8.372;2024-01-10T00:28:53;101953.00;;;-2.10
20289;BMP180;10303;51.960;8.372;2024-01-10T00:31:19;101963.00;;;-2.10
20289;BMP180;10303;51.960;8.372;2024-01-10T00:33:45;101953.00;;;-2.10
20289;BMP180;10303;51.960;8.372;2024-01-10T00:36:11;101950.00;;;-2.10
20289;BMP180;10303;51.960;8.372;2024-01-10T00:38:37;101947.00;;;-2.20
20289;BMP180;10303;51.960;8.372;2024-01-10T00:41:03;101936.00;;;-2.20
20289;BMP180;10303;51.960;8.372;2024-01-10T00:43:29;101946.00;;;-2.20
20289;BMP180;10303;51.960;8.372;2024-01-10T00:45:54;101944.00;;;-2.20
20289;BMP180;10303;51.960;8.372;2024-01-10T00:48:20;101947.00;;;-2.20
20289;BMP180;10303;51.960;8.372;2024-01-10T00:50:46;101941.00;;;-2.20
20289;BMP180;10303;51.960;8.372;2024-01-10T00:53:12;101953.00;;;-2.20
20289;BMP180;10303;51.960;8.372;2024-01-10T00:55:39;101936.00;;;-2.20
20289;BMP180;10303;51.960;8.372;2024-01-10T00:58:04;101927.00;;;-2.20
20289;BMP180;10303;51.960;8.372;2024-01-10T01:00:32;101937.00;;;-2.20
20289;BMP180;10303;51.960;8.372;2024-01-10T01:02:57;101930.00;;;-2.20
20289;BMP180;10303;51.960;8.372;2024-01-10T01:05:23;101930.00;;;-2.20
20289;BMP180;10303;51.960;8.372;2024-01-10T01:07:49;101927.00;;;-2.20
20289;BMP180;10303;51.960;8.372;2024-01-10T01:10:15;101930.00;;;-2.20
20289;BMP180;10303;51.960;8.372;2024-01-10T01:12:42;101933.00;;;-2.20
20289;BMP180;10303;51.960;8.372;2024-01-10T01:15:08;101928.00;;;-2.20
20289;BMP180;10303;51.960;8.372;2024-01-10T01:17:34;101927.00;;;-2.20
20289;BMP180;10303;51.960;8.372;2024-01-10T01:20:00;101927.00;;;-2.20
20289;BMP180;10303;51.960;8.372;2024-01-10T01:22:26;101932.00;;;-2.20
20289;BMP180;10303;51.960;8.372;2024-01-10T01:24:52;101934.00;;;-2.20
20289;BMP180;10303;51.960;8.372;2024-01-10T01:27:18;101940.00;;;-2.20
20289;BMP180;10303;51.960;8.372;2024-01-10T01:29:44;101936.00;;;-2.20
20289;BMP180;10303;51.960;8.372;2024-01-10T01:32:10;101931.00;;;-2.20
20289;BMP180;10303;51.960;8.372;2024-01-10T01:34:36;101939.00;;;-2.20
20289;BMP180;10303;51.960;8.372;2024-01-10T01:37:02;101928.00;;;-2.30
20289;BMP180;10303;51.960;8.372;2024-01-10T01:39:27;101929.00;;;-2.20
20289;BMP180;10303;51.960;8.372;2024-01-10T01:41:53;101938.00;;;-2.30
20289;BMP180;10303;51.960;8.372;2024-01-10T01:44:19;101920.00;;;-2.30
20289;BMP180;10303;51.960;8.372;2024-01-10T01:46:46;101926.00;;;-2.30
20289;BMP180;10303;51.960;8.372;2024-01-10T01:49:14;101926.00;;;-2.40
20289;BMP180;10303;51.960;8.372;2024-01-10T01:51:40;101926.00;;;-2.40
20289;BMP180;10303;51.960;8.372;2024-01-10T01:54:08;101921.00;;;-2.40
20289;BMP180;10303;51.960;8.372;2024-01-10T01:56:38;101927.00;;;-2.40
20289;BMP180;10303;51.960;8.372;2024-01-10T01:59:05;101929.00;;;-2.40
20289;BMP180;10303;51.960;8.372;2024-01-10T02:01:31;101926.00;;;-2.40
20289;BMP180;10303;51.960;8.372;2024-01-10T02:03:57;101919.00;;;-2.40
20289;BMP180;10303;51.960;8.372;2024-01-10T02:06:23;101933.00;;;-2.40
20289;BMP180;10303;51.960;8.372;2024-01-10T02:08:49;101938.00;;;-2.40
20289;BMP180;10303;51.960;8.372;2024-01-10T02:11:15;101929.00;;;-2.40
20289;BMP180;10303;51.960;8.372;2024-01-10T02:13:42;101935.00;;;-2.40
20289;BMP180;10303;51.960;8.372;2024-01-10T02:16:08;101925.00;;;-2.40
20289;BMP180;10303;51.960;8.372;2024-01-10T02:18:34;101913.00;;;-2.40
20289;BMP180;10303;51.960;8.372;2024-01-10T02:21:01;101920.00;;;-2.40
20289;BMP180;10303;51.960;8.372;2024-01-10T02:23:27;101918.00;;;-2.40
20289;BMP180;10303;51.960;8.372;2024-01-10T02:25:53;101922.00;;;-2.50
20289;BMP180;10303;51.960;8.372;2024-01-10T02:28:19;101923.00;;;-2.50
20289;BMP180;10303;51.960;8.372;2024-01-10T02:30:45;101905.00;;;-2.50
20289;BMP180;10303;51.960;8.372;2024-01-10T02:33:12;101905.00;;;-2.50
20289;BMP180;10303;51.960;8.372;2024-01-10T02:35:38;101912.00;;;-2.50
20289;BMP180;10303;51.960;8.372;2024-01-10T02:38:05;101905.00;;;-2.50
20289;BMP180;10303;51.960;8.372;2024-01-10T02:40:31;101906.00;;;-2.50
20289;BMP180;10303;51.960;8.372;2024-01-10T02:42:57;101899.00;;;-2.60
20289;BMP180;10303;51.960;8.372;2024-01-10T02:45:23;101905.00;;;-2.50
20289;BMP180;10303;51.960;8.372;2024-01-10T02:47:49;101912.00;;;-2.60
20289;BMP180;10303;51.960;8.372;2024-01-10T02:50:15;101906.00;;;-2.60
20289;BMP180;10303;51.960;8.372;2024-01-10T02:52:42;101908.00;;;-2.60
20289;BMP180;10303;51.960;8.372;2024-01-10T02:55:08;101909.00;;;-2.60
20289;BMP180;10303;51.960;8.372;2024-01-10T02:57:34;101910.00;;;-2.60
20289;BMP180;10303;51.960;8.372;2024-01-10T03:00:00;101894.00;;;-2.60
20289;BMP180;10303;51.960;8.372;2024-01-10T03:02:26;101906.00;;;-2.60
20289;BMP180;10303;51.960;8.372;2024-01-10T03:04:52;101899.00;;;-2.60
20289;BMP180;10303;51.960;8.372;2024-01-10T03:07:18;101899.00;;;-2.60
20289;BMP180;10303;51.960;8.372;2024-01-10T03:09:43;101900.00;;;-2.60
20289;BMP180;10303;51.960;8.372;2024-01-10T03:12:11;101905.00;;;-2.60
20289;BMP180;10303;51.960;8.372;2024-01-10T03:14:37;101889.00;;;-2.60
20289;BMP180;10303;51.960;8.372;2024-01-10T03:17:03;101900.00;;;-2.60
20289;BMP180;10303;51.960;8.372;2024-01-10T03:19:29;101892.00;;;-2.70
20289;BMP180;10303;51.960;8.372;2024-01-10T03:21:55;101905.00;;;-2.70
20289;BMP180;10303;51.960;8.372;2024-01-10T03:24:21;101902.00;;;-2.70
20289;BMP180;10303;51.960;8.372;2024-01-10T03:26:49;101893.00;;;-2.70
20289;BMP180;10303;51.960;8.372;2024-01-10T03:29:15;101895.00;;;-2.70
20289;BMP180;10303;51.960;8.372;2024-01-10T03:31:41;101901.00;;;-2.70
20289;BMP180;10303;51.960;8.372;2024-01-10T03:34:07;101890.00;;;-2.70
20289;BMP180;10303;51.960;8.372;2024-01-10T03:36:33;101896.00;;;-2.80
20289;BMP180;10303;51.960;8.372;2024-01-10T03:38:59;101895.00;;;-2.80
20289;BMP180;10303;51.960;8.372;2024-01-10T03:41:25;101896.00;;;-2.80
20289;BMP180;10303;51.960;8.372;2024-01-10T03:43:51;101887.00;;;-2.80
20289;BMP180;10303;51.960;8.372;2024-01-10T03:46:17;101894.00;;;-2.80
20289;BMP180;10303;51.960;8.372;2024-01-10T03:48:43;101895.00;;;-2.80
20289;BMP180;10303;51.960;8.372;2024-01-10T03:51:18;101895.00;;;-2.90
20289;BMP180;10303;51.960;8.372;2024-01-10T03:53:45;101896.00;;;-2.90
20289;BMP180;10303;51.960;8.372;2024-01-10T03:56:14;101900.00;;;-2.90
20289;BMP180;10303;51.960;8.372;2024-01-10T03:58:40;101893.00;;;-2.90
20289;BMP180;10303;51.960;8.372;2024-01-10T04:01:07;101894.00;;;-2.90
20289;BMP180;10303;51.960;8.372;2024-01-10T04:03:34;101898.00;;;-2.90
20289;BMP180;10303;51.960;8.372;2024-01-10T04:06:02;101899.00;;;-2.90
20289;BMP180;10303;51.960;8.372;2024-01-10T04:08:28;101899.00;;;-2.90
20289;BMP180;10303;51.960;8.372;2024-01-10T04:10:54;101895.00;;;-2.90
20289;BMP180;10303;51.960;8.372;2024-01-10T04:13:20;101878.00;;;-2.90
20289;BMP180;10303;51.960;8.372;2024-01-10T04:15:46;101877.00;;;-3.00
20289;BMP180;10303;51.960;8.372;2024-01-10T04:18:12;101883.00;;;-2.90
20289;BMP180;10303;51.960;8.372;2024-01-10T04:20:38;101883.00;;;-3.00
20289;BMP180;10303;51.960;8.372;2024-01-10T04:23:04;101880.00;;;-3.00
20289;BMP180;10303;51.960;8.372;2024-01-10T04:25:30;101885.00;;;-3.00
20289;BMP180;10303;51.960;8.372;2024-01-10T04:27:56;101881.00;;;-3.00
20289;BMP180;10303;51.960;8.372;2024-01-10T04:30:23;101878.00;;;-3.00
20289;BMP180;10303;51.960;8.372;2024-01-10T04:32:49;101863.00;;;-3.00
20289;BMP180;10303;51.960;8.372;2024-01-10T04:35:15;101872.00;;;-3.00
20289;BMP180;10303;51.960;8.372;2024-01-10T04:37:41;101858.00;;;-3.00
20289;BMP180;10303;51.960;8.372;2024-01-10T04:40:07;101859.00;;;-3.00
20289;BMP180;10303;51.960;8.372;2024-01-10T04:42:34;101851.00;;;-3.00
20289;BMP180;10303;51.960;8.372;2024-01-10T04:45:04;101850.00;;;-3.00
20289;BMP180;10303;51.960;8.372;2024-01-10T04:47:30;101853.00;;;-3.00
20289;BMP180;10303;51.960;8.372;2024-01-10T04:49:56;101843.00;;;-2.90
20289;BMP180;10303;51.960;8.372;2024-01-10T04:52:21;101843.00;;;-2.90
20289;BMP180;10303;51.960;8.372;2024-01-10T04:54:47;101842.00;;;-2.90
20289;BMP180;10303;51.960;8.372;2024-01-10T04:57:13;101838.00;;;-2.90
20289;BMP180;10303;51.960;8.372;2024-01-10T04:59:39;101835.00;;;-2.80
20289;BMP180;10303;51.960;8.372;2024-01-10T05:02:05;101840.00;;;-2.80
20289;BMP180;10303;51.960;8.372;2024-01-10T05:04:31;101837.00;;;-2.80
20289;BMP180;10303;51.960;8.372;2024-01-10T05:06:57;101838.00;;;-2.70
20289;BMP180;10303;51.960;8.372;2024-01-10T05:09:22;101830.00;;;-2.70
20289;BMP180;10303;51.960;8.372;2024-01-10T05:11:48;101835.00;;;-2.70
20289;BMP180;10303;51.960;8.372;2024-01-10T05:14:17;101829.00;;;-2.60
20289;BMP180;10303;51.960;8.372;2024-01-10T05:16:46;101834.00;;;-2.60
20289;BMP180;10303;51.960;8.372;2024-01-10T05:19:15;101833.00;;;-2.60
20289;BMP180;10303;51.960;8.372;2024-01-10T05:21:42;101832.00;;;-2.60
20289;BMP180;10303;51.960;8.372;2024-01-10T05:24:08;101838.00;;;-2.60
20289;BMP180;10303;51.960;8.372;2024-01-10T05:26:34;101835.00;;;-2.50
20289;BMP180;10303;51.960;8.372;2024-01-10T05:29:01;101835.00;;;-2.50
20289;BMP180;10303;51.960;8.372;2024-01-10T05:31:27;101836.00;;;-2.50
20289;BMP180;10303;51.960;8.372;2024-01-10T05:33:53;101837.00;;;-2.50
20289;BMP180;10303;51.960;8.372;2024-01-10T05:36:23;101836.00;;;-2.50
20289;BMP180;10303;51.960;8.372;2024-01-10T05:38:49;101849.00;;;-2.50
20289;BMP180;10303;51.960;8.372;2024-01-10T05:41:15;101844.00;;;-2.50
20289;BMP180;10303;51.960;8.372;2024-01-10T05:43:41;101844.00;;;-2.50
20289;BMP180;10303;51.960;8.372;2024-01-10T05:46:07;101846.00;;;-2.50
20289;BMP180;10303;51.960;8.372;2024-01-10T05:48:33;101858.00;;;-2.50
20289;BMP180;10303;51.960;8.372;2024-01-10T05:50:59;101846.00;;;-2.50
20289;BMP180;10303;51.960;8.372;2024-01-10T05:53:25;101846.00;;;-2.50
20289;BMP180;10303;51.960;8.372;2024-01-10T05:55:51;101854.00;;;-2.50
20289;BMP180;10303;51.960;8.372;2024-01-10T05:58:16;101858.00;;;-2.50
20289;BMP180;10303;51.960;8.372;2024-01-10T06:00:42;101856.00;;;-2.60
20289;BMP180;10303;51.960;8.372;2024-01-10T06:03:08;101847.00;;;-2.60
20289;BMP180;10303;51.960;8.372;2024-01-10T06:05:35;101852.00;;;-2.60
20289;BMP180;10303;51.960;8.372;2024-01-10T06:08:00;101849.00;;;-2.60
20289;BMP180;10303;51.960;8.372;2024-01-10T06:10:29;101853.00;;;-2.60
20289;BMP180;10303;51.960;8.372;2024-01-10T06:12:55;101853.00;;;-2.70
20289;BMP180;10303;51.960;8.372;2024-01-10T06:15:22;101842.00;;;-2.70
20289;BMP180;10303;51.960;8.372;2024-01-10T06:17:48;101848.00;;;-2.70
20289;BMP180;10303;51.960;8.372;2024-01-10T06:20:15;101849.00;;;-2.80
20289;BMP180;10303;51.960;8.372;2024-01-10T06:22:41;101849.00;;;-2.80
20289;BMP180;10303;51.960;8.372;2024-01-10T06:25:07;101853.00;;;-2.80
20289;BMP180;10303;51.960;8.372;2024-01-10T06:27:33;101865.00;;;-2.80
20289;BMP180;10303;51.960;8.372;2024-01-10T06:29:59;101855.00;;;-2.90
20289;BMP180;10303;51.960;8.372;2024-01-10T06:32:25;101863.00;;;-2.90
20289;BMP180;10303;51.960;8.372;2024-01-10T06:34:51;101869.00;;;-2.90
20289;BMP180;10303;51.960;8.372;2024-01-10T06:37:18;101864.00;;;-2.90
20289;BMP180;10303;51.960;8.372;2024-01-10T06:39:44;101863.00;;;-3.00
20289;BMP180;10303;51.960;8.372;2024-01-10T06:42:11;101864.00;;;-3.00
20289;BMP180;10303;51.960;8.372;2024-01-10T06:44:37;101860.00;;;-3.00
20289;BMP180;10303;51.960;8.372;2024-01-10T06:47:03;101870.00;;;-3.10
20289;BMP180;10303;51.960;8.372;2024-01-10T06:49:30;101889.00;;;-3.10
20289;BMP180;10303;51.960;8.372;2024-01-10T06:51:55;101882.00;;;-3.10
20289;BMP180;10303;51.960;8.372;2024-01-10T06:54:21;101881.00;;;-3.10
20289;BMP180;10303;51.960;8.372;2024-01-10T06:56:47;101883.00;;;-3.20
20289;BMP180;10303;51.960;8.372;2024-01-10T06:59:13;101890.00;;;-3.20
20289;BMP180;10303;51.960;8.372;2024-01-10T07:01:39;101883.00;;;-3.30
20289;BMP180;10303;51.960;8.372;2024-01-10T07:04:05;101884.00;;;-3.30
20289;BMP180;10303;51.960;8.372;2024-01-10T07:06:31;101882.00;;;-3.30
20289;BMP180;10303;51.960;8.372;2024-01-10T07:08:57;101880.00;;;-3.30
20289;BMP180;10303;51.960;8.372;2024-01-10T07:11:24;101884.00;;;-3.40
20289;BMP180;10303;51.960;8.372;2024-01-10T07:13:50;101882.00;;;-3.40
20289;BMP180;10303;51.960;8.372;2024-01-10T07:16:16;101875.00;;;-3.40
20289;BMP180;10303;51.960;8.372;2024-01-10T07:18:43;101873.00;;;-3.40
20289;BMP180;10303;51.960;8.372;2024-01-10T07:21:10;101877.00;;;-3.40
20289;BMP180;10303;51.960;8.372;2024-01-10T07:23:36;101874.00;;;-3.40
20289;BMP180;10303;51.960;8.372;2024-01-10T07:26:06;101884.00;;;-3.40
20289;BMP180;10303;51.960;8.372;2024-01-10T07:28:32;101882.00;;;-3.50
20289;BMP180;10303;51.960;8.372;2024-01-10T07:30:58;101885.00;;;-3.50
20289;BMP180;10303;51.960;8.372;2024-01-10T07:33:24;101886.00;;;-3.50
20289;BMP180;10303;51.960;8.372;2024-01-10T07:35:50;101883.00;;;-3.50
20289;BMP180;10303;51.960;8.372;2024-01-10T07:38:16;101882.00;;;-3.50
20289;BMP180;10303;51.960;8.372;2024-01-10T07:40:42;101879.00;;;-3.60
20289;BMP180;10303;51.960;8.372;2024-01-10T07:43:08;101876.00;;;-3.50
20289;BMP180;10303;51.960;8.372;2024-01-10T07:45:34;101869.00;;;-3.50
20289;BMP180;10303;51.960;8.372;2024-01-10T07:47:59;101864.00;;;-3.50
20289;BMP180;10303;51.960;8.372;2024-01-10T07:50:25;101860.00;;;-3.50
20289;BMP180;10303;51.960;8.372;2024-01-10T07:52:53;101869.00;;;-3.50
20289;BMP180;10303;51.960;8.372;2024-01-10T07:55:19;101871.00;;;-3.50
20289;BMP180;10303;51.960;8.372;2024-01-10T07:57:45;101859.00;;;-3.50
20289;BMP180;10303;51.960;8.372;2024-01-10T08:00:12;101869.00;;;-3.50
20289;BMP180;10303;51.960;8.372;2024-01-10T08:02:39;101865.00;;;-3.50
20289;BMP180;10303;51.960;8.372;2024-01-10T08:05:07;101869.00;;;-3.50
20289;BMP180;10303;51.960;8.372;2024-01-10T08:07:38;101857.00;;;-3.50
20289;BMP180;10303;51.960;8.372;2024-01-10T08:10:09;101854.00;;;-3.40
20289;BMP180;10303;51.960;8.372;2024-01-10T08:12:39;101860.00;;;-3.40
20289;BMP180;10303;51.960;8.372;2024-01-10T08:15:07;101853.00;;;-3.40
20289;BMP180;10303;51.960;8.372;2024-01-10T08:17:34;101852.00;;;-3.40
20289;BMP180;10303;51.960;8.372;2024-01-10T08:20:00;101862.00;;;-3.30
20289;BMP180;10303;51.960;8.372;2024-01-10T08:22:26;101853.00;;;-3.30
20289;BMP180;10303;51.960;8.372;2024-01-10T08:24:52;101859.00;;;-3.20
20289;BMP180;10303;51.960;8.372;2024-01-10T08:27:18;101857.00;;;-3.20
20289;BMP180;10303;51.960;8.372;2024-01-10T08:29:44;101857.00;;;-3.10
20289;BMP180;10303;51.960;8.372;2024-01-10T08:32:11;101864.00;;;-3.00
20289;BMP180;10303;51.960;8.372;2024-01-10T08:34:37;101870.00;;;-3.00
20289;BMP180;10303;51.960;8.372;2024-01-10T08:37:03;101874.00;;;-2.90
20289;BMP180;10303;51.960;8.372;2024-01-10T08:39:29;101873.00;;;-2.90
20289;BMP180;10303;51.960;8.372;2024-01-10T08:41:57;101872.00;;;-2.80
20289;BMP180;10303;51.960;8.372;2024-01-10T08:44:23;101864.00;;;-2.80
20289;BMP180;10303;51.960;8.372;2024-01-10T08:46:49;101879.00;;;-2.70
20289;BMP180;10303;51.960;8.372;2024-01-10T08:49:17;101872.00;;;-2.70
20289;BMP180;10303;51.960;8.372;2024-01-10T08:51:43;101858.00;;;-2.60
20289;BMP180;10303;51.960;8.372;2024-01-10T08:54:10;101855.00;;;-2.60
20289;BMP180;10303;51.960;8.372;2024-01-10T08:56:38;101873.00;;;-2.50
20289;BMP180;10303;51.960;8.372;2024-01-10T08:59:04;101870.00;;;-2.50
20289;BMP180;10303;51.960;8.372;2024-01-10T09:01:30;101870.00;;;-2.40
20289;BMP180;10303;51.960;8.372;2024-01-10T09:03:56;101869.00;;;-2.30
20289;BMP180;10303;51.960;8.372;2024-01-10T09:06:22;101865.00;;;-2.20
20289;BMP180;10303;51.960;8.372;2024-01-10T09:08:48;101869.00;;;-2.00
20289;BMP180;10303;51.960;8.372;2024-01-10T09:11:14;101855.00;;;-1.50
20289;BMP180;10303;51.960;8.372;2024-01-10T09:13:39;101863.00;;;-0.80
20289;BMP180;10303;51.960;8.372;2024-01-10T09:16:06;101859.00;;;0.00
20289;BMP180;10303;51.960;8.372;2024-01-10T09:18:32;101860.00;;;0.70
20289;BMP180;10303;51.960;8.372;2024-01-10T09:20:58;101861.00;;;1.40
20289;BMP180;10303;51.960;8.372;2024-01-10T09:23:26;101858.00;;;2.10
20289;BMP180;10303;51.960;8.372;2024-01-10T09:25:53;101871.00;;;2.80
20289;BMP180;10303;51.960;8.372;2024-01-10T09:28:19;101865.00;;;3.40
20289;BMP180;10303;51.960;8.372;2024-01-10T09:30:45;101871.00;;;4.00
20289;BMP180;10303;51.960;8.372;2024-01-10T09:33:11;101872.00;;;4.40
20289;BMP180;10303;51.960;8.372;2024-01-10T09:35:38;101878.00;;;4.80
20289;BMP180;10303;51.960;8.372;2024-01-10T09:38:03;101885.00;;;4.90
20289;BMP180;10303;51.960;8.372;2024-01-10T09:40:30;101879.00;;;5.10
20289;BMP180;10303;51.960;8.372;2024-01-10T09:42:56;101876.00;;;5.20
20289;BMP180;10303;51.960;8.372;2024-01-10T09:45:22;101876.00;;;5.30
20289;BMP180;10303;51.960;8.372;2024-01-10T09:47:55;101879.00;;;5.40
20289;BMP180;10303;51.960;8.372;2024-01-10T09:50:22;101878.00;;;5.40
20289;BMP180;10303;51.960;8.372;2024-01-10T09:52:54;101878.00;;;5.40
20289;BMP180;10303;51.960;8.372;2024-01-10T09:55:22;101869.00;;;5.40
20289;BMP180;10303;51.960;8.372;2024-01-10T09:57:52;101865.00;;;5.40
20289;BMP180;10303;51.960;8.372;2024-01-10T10:00:18;101861.00;;;5.50
20289;BMP180;10303;51.960;8.372;2024-01-10T10:02:46;101861.00;;;5.50
20289;BMP180;10303;51.960;8.372;2024-01-10T10:05:17;101861.00;;;5.60
20289;BMP180;10303;51.960;8.372;2024-01-10T10:07:44;101870.00;;;5.50
20289;BMP180;10303;51.960;8.372;2024-01-10T10:10:10;101861.00;;;5.40
20289;BMP180;10303;51.960;8.372;2024-01-10T10:12:52;101862.00;;;5.40
20289;BMP180;10303;51.960;8.372;2024-01-10T10:15:21;101851.00;;;5.30
20289;BMP180;10303;51.960;8.372;2024-01-10T10:17:54;101847.00;;;5.30
20289;BMP180;10303;51.960;8.372;2024-01-10T10:20:22;101855.00;;;5.30
20289;BMP180;10303;51.960;8.372;2024-01-10T10:23:07;101854.00;;;5.40
20289;BMP180;10303;51.960;8.372;2024-01-10T10:25:42;101851.00;;;5.30
20289;BMP180;10303;51.960;8.372;2024-01-10T10:28:08;101861.00;;;5.20
20289;BMP180;10303;51.960;8.372;2024-01-10T10:30:35;101849.00;;;5.20
20289;BMP180;10303;51.960;8.372;2024-01-10T10:33:05;101859.00;;;5.10
20289;BMP180;10303;51.960;8.372;2024-01-10T10:35:34;101848.00;;;5.10
20289;BMP180;10303;51.960;8.372;2024-01-10T10:38:00;101851.00;;;5.20
20289;BMP180;10303;51.960;8.372;2024-01-10T10:40:26;101863.00;;;5.40
20289;BMP180;10303;51.960;8.372;2024-01-10T10:42:56;101852.00;;;5.40
20289;BMP180;10303;51.960;8.372;2024-01-10T10:45:23;101860.00;;;5.50
20289;BMP180;10303;51.960;8.372;2024-01-10T10:48:00;101861.00;;;5.60
20289;BMP180;10303;51.960;8.372;2024-01-10T10:50:34;101849.00;;;5.80
20289;BMP180;10303;51.960;8.372;2024-01-10T10:53:03;101851.00;;;6.00
20289;BMP180;10303;51.960;8.372;2024-01-10T10:55:30;101857.00;;;6.00
20289;BMP180;10303;51.960;8.372;2024-01-10T10:57:58;101853.00;;;6.00
20289;BMP180;10303;51.960;8.372;2024-01-10T11:00:24;101859.00;;;6.10
20289;BMP180;10303;51.960;8.372;2024-01-10T11:02:56;101858.00;;;6.20
20289;BMP180;10303;51.960;8.372;2024-01-10T11:05:26;101846.00;;;6.40
20289;BMP180;10303;51.960;8.372;2024-01-10T11:07:52;101849.00;;;6.50
20289;BMP180;10303;51.960;8.372;2024-01-10T11:10:28;101847.00;;;6.80
20289;BMP180;10303;51.960;8.372;2024-01-10T11:17:26;101855.00;;;7.90
20289;BMP180;10303;51.960;8.372;2024-01-10T11:20:12;101855.00;;;8.40
20289;BMP180;10303;51.960;8.372;2024-01-10T11:23:10;101870.00;;;8.80
20289;BMP180;10303;51.960;8.372;2024-01-10T11:25:43;101860.00;;;9.10
20289;BMP180;10303;51.960;8.372;2024-01-10T11:28:12;101850.00;;;9.40
20289;BMP180;10303;51.960;8.372;2024-01-10T11:30:50;101856.00;;;9.70
20289;BMP180;10303;51.960;8.372;2024-01-10T11:33:35;101855.00;;;9.80
20289;BMP180;10303;51.960;8.372;2024-01-10T11:36:19;101861.00;;;9.90
20289;BMP180;10303;51.960;8.372;2024-01-10T11:41:35;101857.00;;;10.20
20289;BMP180;10303;51.960;8.372;2024-01-10T11:46:43;101859.00;;;10.50
20289;BMP180;10303;51.960;8.372;2024-01-10T11:49:12;101853.00;;;10.60
20289;BMP180;10303;51.960;8.372;2024-01-10T11:51:42;101854.00;;;10.80
20289;BMP180;10303;51.960;8.372;2024-01-10T11:54:08;101843.00;;;11.00
20289;BMP180;10303;51.960;8.372;2024-01-10T11:56:42;101854.00;;;11.20
20289;BMP180;10303;51.960;8.372;2024-01-10T11:59:14;101841.00;;;11.30
20289;BMP180;10303;51.960;8.372;2024-01-10T12:01:42;101844.00;;;11.50
20289;BMP180;10303;51.960;8.372;2024-01-10T12:04:09;101852.00;;;11.60
20289;BMP180;10303;51.960;8.372;2024-01-10T12:06:38;101843.00;;;11.80
20289;BMP180;10303;51.960;8.372;2024-01-10T12:09:04;101847.00;;;12.00
20289;BMP180;10303;51.960;8.372;2024-01-10T12:11:41;101840.00;;;12.10
20289;BMP180;10303;51.960;8.372;2024-01-10T12:14:09;101846.00;;;12.20
20289;BMP180;10303;51.960;8.372;2024-01-10T12:16:35;101836.00;;;12.30
20289;BMP180;10303;51.960;8.372;2024-01-10T12:19:01;101834.00;;;12.40
20289;BMP180;10303;51.960;8.372;2024-01-10T12:21:27;101825.00;;;12.50
20289;BMP180;10303;51.960;8.372;2024-01-10T12:23:53;101835.00;;;12.60
20289;BMP180;10303;51.960;8.372;2024-01-10T12:26:19;101841.00;;;12.60
20289;BMP180;10303;51.960;8.372;2024-01-10T12:28:59;101843.00;;;12.60
20289;BMP180;10303;51.960;8.372;2024-01-10T12:31:29;101842.00;;;12.70
20289;BMP180;10303;51.960;8.372;2024-01-10T12:33:56;101837.00;;;12.80
20289;BMP180;10303;51.960;8.372;2024-01-10T12:36:22;101823.00;;;12.80
20289;BMP180;10303;51.960;8.372;2024-01-10T12:38:49;101826.00;;;12.90
20289;BMP180;10303;51.960;8.372;2024-01-10T12:41:18;101826.00;;;12.90
20289;BMP180;10303;51.960;8.372;2024-01-10T12:43:49;101828.00;;;13.00
20289;BMP180;10303;51.960;8.372;2024-01-10T12:46:17;101825.00;;;13.20
20289;BMP180;10303;51.960;8.372;2024-01-10T12:48:43;101818.00;;;13.30
20289;BMP180;10303;51.960;8.372;2024-01-10T12:51:12;101818.00;;;13.30
20289;BMP180;10303;51.960;8.372;2024-01-10T12:53:43;101820.00;;;13.40
20289;BMP180;10303;51.960;8.372;2024-01-10T12:56:11;101816.00;;;13.50
20289;BMP180;10303;51.960;8.372;2024-01-10T12:58:41;101823.00;;;13.50
20289;BMP180;10303;51.960;8.372;2024-01-10T13:01:11;101823.00;;;13.60
20289;BMP180;10303;51.960;8.372;2024-01-10T13:03:38;101825.00;;;13.70
20289;BMP180;10303;51.960;8.372;2024-01-10T13:06:05;101828.00;;;13.80
20289;BMP180;10303;51.960;8.372;2024-01-10T13:08:32;101827.00;;;13.80
20289;BMP180;10303;51.960;8.372;2024-01-10T13:10:58;101828.00;;;13.80
20289;BMP180;10303;51.960;8.372;2024-01-10T13:13:26;101818.00;;;13.70
20289;BMP180;10303;51.960;8.372;2024-01-10T13:15:52;101828.00;;;13.60
20289;BMP180;10303;51.960;8.372;2024-01-10T13:18:18;101833.00;;;13.30
20289;BMP180;10303;51.960;8.372;2024-01-10T13:20:45;101834.00;;;13.10
20289;BMP180;10303;51.960;8.372;2024-01-10T13:23:11;101827.00;;;12.90
20289;BMP180;10303;51.960;8.372;2024-01-10T13:25:37;101830.00;;;12.80
20289;BMP180;10303;51.960;8.372;2024-01-10T13:28:04;101821.00;;;12.70
20289;BMP180;10303;51.960;8.372;2024-01-10T13:30:31;101816.00;;;12.50
20289;BMP180;10303;51.960;8.372;2024-01-10T13:32:57;101815.00;;;12.30
20289;BMP180;10303;51.960;8.372;2024-01-10T13:35:24;101818.00;;;12.10
20289;BMP180;10303;51.960;8.372;2024-01-10T13:37:50;101817.00;;;11.80
20289;BMP180;10303;51.960;8.372;2024-01-10T13:40:16;101823.00;;;11.50
20289;BMP180;10303;51.960;8.372;2024-01-10T13:42:43;101814.00;;;11.10
20289;BMP180;10303;51.960;8.372;2024-01-10T13:45:10;101827.00;;;10.70
20289;BMP180;10303;51.960;8.372;2024-01-10T13:47:37;101831.00;;;10.50
20289;BMP180;10303;51.960;8.372;2024-01-10T13:50:05;101824.00;;;10.10
20289;BMP180;10303;51.960;8.372;2024-01-10T13:52:33;101829.00;;;9.80
20289;BMP180;10303;51.960;8.372;2024-01-10T13:55:00;101829.00;;;9.50
20289;BMP180;10303;51.960;8.372;2024-01-10T13:57:26;101837.00;;;9.30
20289;BMP180;10303;51.960;8.372;2024-01-10T13:59:52;101830.00;;;9.00
20289;BMP180;10303;51.960;8.372;2024-01-10T14:02:24;101828.00;;;8.80
20289;BMP180;10303;51.960;8.372;2024-01-10T14:04:51;101824.00;;;8.60
20289;BMP180;10303;51.960;8.372;2024-01-10T14:07:19;101834.00;;;8.40
20289;BMP180;10303;51.960;8.372;2024-01-10T14:09:45;101829.00;;;8.20